createdAt,value
2018-09-21T00:01:08.837Z,14.10
2018-09-21T00:03:37.304Z,14.10
2018-09-21T00:06:05.756Z,14.10
2018-09-21T00:08:34.229Z,13.90
2018-09-21T00:11:02.668Z,13.80
2018-09-21T00:13:31.118Z,13.70
2018-09-21T00:15:59.549Z,13.70
2018-09-21T00:18:27.995Z,13.60
2018-09-21T00:20:56.434Z,13.60
2018-09-21T00:23:24.888Z,13.60
2018-09-21T00:25:53.329Z,13.70
2018-09-21T00:28:21.779Z,13.70
2018-09-21T00:30:50.183Z,13.80
2018-09-21T00:33:18.680Z,13.80
2018-09-21T00:35:47.120Z,13.80
2018-09-21T00:38:15.586Z,13.60
2018-09-21T00:40:43.988Z,13.40
2018-09-21T00:43:12.538Z,13.20
2018-09-21T00:45:41.018Z,13.10
2018-09-21T00:48:09.497Z,13.20
2018-09-21T00:50:38.324Z,13.30
2018-09-21T00:53:06.781Z,13.40
2018-09-21T00:55:35.490Z,13.50
2018-09-21T00:58:03.951Z,13.60
2018-09-21T01:00:32.408Z,13.60
2018-09-21T01:03:00.879Z,13.60
2018-09-21T01:05:29.329Z,13.60
2018-09-21T01:07:57.809Z,13.60
2018-09-21T01:10:26.259Z,13.50
2018-09-21T01:12:54.729Z,13.30
2018-09-21T01:15:23.236Z,13.20
2018-09-21T01:17:51.691Z,13.10
2018-09-21T01:20:20.167Z,13.00
2018-09-21T01:22:48.592Z,13.00
2018-09-21T01:25:17.060Z,12.90
2018-09-21T01:27:45.508Z,12.90
2018-09-21T01:30:14.049Z,13.00
2018-09-21T01:32:42.518Z,13.10
2018-09-21T01:35:10.976Z,13.10
2018-09-21T01:37:39.436Z,12.90
2018-09-21T01:40:07.957Z,12.70
2018-09-21T01:42:36.387Z,12.60
2018-09-21T01:45:05.233Z,12.50
2018-09-21T01:47:33.760Z,12.60
2018-09-21T01:50:02.269Z,12.70
2018-09-21T01:52:30.733Z,12.80
2018-09-21T01:54:59.201Z,12.90
2018-09-21T01:57:27.634Z,12.90
2018-09-21T01:59:56.169Z,13.00
2018-09-21T02:02:24.636Z,13.00
2018-09-21T02:04:53.098Z,13.00
2018-09-21T02:07:21.577Z,12.80
2018-09-21T02:09:50.037Z,12.70
2018-09-21T02:12:18.504Z,12.80
2018-09-21T02:14:46.960Z,12.90
2018-09-21T02:17:15.421Z,12.90
2018-09-21T02:19:43.884Z,12.80
2018-09-21T02:22:12.353Z,12.60
2018-09-21T02:24:40.796Z,12.40
2018-09-21T02:27:09.287Z,12.30
2018-09-21T02:29:37.716Z,12.10
2018-09-21T02:32:06.453Z,12.10
2018-09-21T02:34:34.982Z,12.10
2018-09-21T02:37:03.502Z,12.20
2018-09-21T02:39:31.933Z,12.30
2018-09-21T02:42:00.412Z,12.20
2018-09-21T02:44:28.844Z,12.20
2018-09-21T02:46:57.374Z,12.20
2018-09-21T02:49:25.804Z,12.30
2018-09-21T02:51:54.275Z,12.30
2018-09-21T02:54:22.856Z,12.40
2018-09-21T02:56:51.380Z,12.50
2018-09-21T02:59:19.829Z,12.30
2018-09-21T03:01:48.349Z,12.30
2018-09-21T03:04:16.868Z,12.20
2018-09-21T03:06:45.307Z,12.10
2018-09-21T03:09:13.773Z,11.90
2018-09-21T03:11:42.219Z,11.80
2018-09-21T03:14:10.648Z,11.90
2018-09-21T03:16:39.120Z,11.90
2018-09-21T03:19:07.557Z,12.00
2018-09-21T03:21:36.010Z,12.10
2018-09-21T03:24:04.612Z,12.00
2018-09-21T03:26:33.052Z,12.00
2018-09-21T03:29:01.472Z,11.90
2018-09-21T03:31:29.928Z,12.00
2018-09-21T03:33:58.356Z,12.00
2018-09-21T03:36:26.756Z,12.10
2018-09-21T03:38:55.198Z,12.20
2018-09-21T03:41:23.604Z,12.20
2018-09-21T03:43:52.045Z,12.20
2018-09-21T03:46:20.467Z,12.30
2018-09-21T03:48:48.949Z,12.30
2018-09-21T03:51:17.382Z,12.30
2018-09-21T03:53:45.813Z,12.10
2018-09-21T03:56:14.289Z,11.80
2018-09-21T03:58:42.734Z,11.70
2018-09-21T04:01:11.196Z,11.70
2018-09-21T04:03:39.612Z,11.70
2018-09-21T04:06:08.085Z,11.70
2018-09-21T04:08:36.489Z,11.50
2018-09-21T04:11:04.921Z,11.40
2018-09-21T04:13:33.420Z,11.40
2018-09-21T04:16:01.849Z,11.40
2018-09-21T04:18:30.285Z,11.60
2018-09-21T04:20:58.680Z,11.70
2018-09-21T04:23:27.166Z,11.80
2018-09-21T04:25:55.561Z,11.80
2018-09-21T04:28:23.964Z,11.80
2018-09-21T04:30:52.412Z,11.70
2018-09-21T04:33:20.809Z,11.60
2018-09-21T04:35:49.318Z,11.50
2018-09-21T04:38:17.717Z,11.30
2018-09-21T04:40:46.192Z,11.20
2018-09-21T04:43:14.597Z,11.20
2018-09-21T04:45:43.044Z,11.20
2018-09-21T04:48:11.435Z,11.30
2018-09-21T04:50:40.993Z,11.40
2018-09-21T04:53:09.401Z,11.40
2018-09-21T04:55:37.835Z,11.30
2018-09-21T04:58:06.245Z,11.20
2018-09-21T05:00:34.700Z,11.10
2018-09-21T05:03:03.096Z,11.10
2018-09-21T05:05:31.554Z,11.10
2018-09-21T05:07:59.965Z,11.10
2018-09-21T05:10:28.802Z,11.20
2018-09-21T05:12:57.193Z,11.30
2018-09-21T05:15:25.608Z,11.40
2018-09-21T05:17:55.080Z,11.60
2018-09-21T05:20:23.501Z,11.70
2018-09-21T05:22:51.899Z,11.90
2018-09-21T05:25:22.189Z,12.00
2018-09-21T05:27:50.624Z,12.10
2018-09-21T05:30:19.060Z,12.30
2018-09-21T05:32:47.625Z,12.30
2018-09-21T05:35:16.241Z,12.40
2018-09-21T05:37:44.467Z,12.70
2018-09-21T05:40:12.879Z,13.00
2018-09-21T05:42:41.356Z,13.50
2018-09-21T05:45:09.760Z,14.10
2018-09-21T05:47:38.261Z,14.50
2018-09-21T05:50:06.688Z,14.60
2018-09-21T05:52:36.685Z,14.40
2018-09-21T05:55:05.193Z,14.00
2018-09-21T05:57:33.609Z,13.70
2018-09-21T06:00:03.193Z,13.40
2018-09-21T06:02:31.791Z,13.40
2018-09-21T06:05:08.274Z,13.90
2018-09-21T06:07:37.235Z,15.50
2018-09-21T06:10:06.201Z,16.50
2018-09-21T06:12:34.856Z,16.60
2018-09-21T06:15:03.377Z,16.40
2018-09-21T06:17:31.801Z,16.30
2018-09-21T06:20:11.935Z,16.50
2018-09-21T06:22:30.729Z,16.50
2018-09-21T06:24:59.112Z,16.70
2018-09-21T06:27:27.548Z,18.30
2018-09-21T06:29:56.153Z,20.00
2018-09-21T06:32:24.568Z,21.40
2018-09-21T06:34:53.159Z,22.50
2018-09-21T06:37:21.573Z,23.50
2018-09-21T06:39:50.017Z,24.20
2018-09-21T06:42:18.404Z,24.80
2018-09-21T06:44:46.847Z,25.60
2018-09-21T06:47:15.256Z,26.20
2018-09-21T06:49:43.688Z,26.80
2018-09-21T06:52:12.108Z,27.20
2018-09-21T06:54:41.869Z,27.30
2018-09-21T06:57:10.255Z,27.30
2018-09-21T06:59:38.664Z,27.40
2018-09-21T07:02:07.165Z,27.50
2018-09-21T07:04:35.589Z,27.70
2018-09-21T07:07:04.064Z,27.90
2018-09-21T07:09:32.479Z,28.00
2018-09-21T07:12:00.905Z,28.00
2018-09-21T07:14:29.327Z,28.00
2018-09-21T07:16:59.469Z,27.90
2018-09-21T07:19:27.994Z,28.30
2018-09-21T07:21:56.386Z,28.40
2018-09-21T07:24:26.473Z,28.20
2018-09-21T07:26:56.128Z,28.30
2018-09-21T07:29:24.546Z,28.30
2018-09-21T07:31:52.958Z,28.50
2018-09-21T07:34:21.390Z,28.80
2018-09-21T07:36:49.820Z,29.00
2018-09-21T07:39:18.212Z,29.50
2018-09-21T07:41:46.623Z,29.90
2018-09-21T07:44:15.028Z,30.10
2018-09-21T07:46:43.452Z,30.00
2018-09-21T07:49:11.849Z,29.80
2018-09-21T07:51:40.297Z,29.50
2018-09-21T07:54:08.701Z,28.90
2018-09-21T07:56:37.132Z,28.20
2018-09-21T07:59:05.538Z,27.40
2018-09-21T08:01:34.008Z,26.60
2018-09-21T08:04:02.412Z,25.90
2018-09-21T08:06:30.821Z,25.40
2018-09-21T08:08:59.222Z,25.20
2018-09-21T08:11:27.647Z,25.10
2018-09-21T08:13:56.073Z,25.10
2018-09-21T08:16:24.487Z,25.10
2018-09-21T08:18:52.883Z,25.40
2018-09-21T08:21:21.313Z,26.20
2018-09-21T08:23:49.724Z,26.90
2018-09-21T08:26:18.128Z,27.30
2018-09-21T08:28:46.861Z,27.30
2018-09-21T08:31:15.309Z,26.80
2018-09-21T08:33:43.700Z,26.20
2018-09-21T08:36:12.107Z,25.70
2018-09-21T08:38:40.528Z,24.90
2018-09-21T08:41:08.956Z,24.40
2018-09-21T08:43:37.365Z,24.00
2018-09-21T08:46:05.785Z,23.80
2018-09-21T08:48:34.203Z,23.50
2018-09-21T08:51:02.608Z,23.20
2018-09-21T08:53:31.043Z,23.20
2018-09-21T08:55:59.437Z,23.20
2018-09-21T08:58:27.907Z,23.10
2018-09-21T09:00:56.329Z,23.10
2018-09-21T09:03:24.833Z,23.30
2018-09-21T09:05:54.232Z,23.30
2018-09-21T09:08:24.364Z,23.40
2018-09-21T09:10:53.230Z,23.40
2018-09-21T09:13:21.853Z,23.50
2018-09-21T09:15:51.333Z,23.70
2018-09-21T09:18:19.952Z,24.00
2018-09-21T09:20:48.625Z,24.20
2018-09-21T09:23:17.160Z,24.40
2018-09-21T09:25:45.467Z,24.50
2018-09-21T09:28:13.916Z,24.30
2018-09-21T09:30:42.324Z,24.20
2018-09-21T09:33:10.721Z,24.00
2018-09-21T09:35:39.159Z,23.90
2018-09-21T09:38:07.564Z,24.00
2018-09-21T09:40:35.993Z,24.10
2018-09-21T09:43:04.491Z,24.20
2018-09-21T09:45:32.872Z,24.70
2018-09-21T09:48:01.272Z,25.60
2018-09-21T09:50:29.703Z,26.40
2018-09-21T09:52:58.101Z,26.70
2018-09-21T09:55:26.551Z,26.50
2018-09-21T09:57:54.941Z,26.50
2018-09-21T10:00:28.735Z,26.40
2018-09-21T10:02:58.916Z,26.20
2018-09-21T10:05:27.381Z,26.10
2018-09-21T10:07:55.764Z,26.00
2018-09-21T10:10:24.192Z,26.00
2018-09-21T10:12:54.493Z,25.80
2018-09-21T10:15:22.939Z,25.40
2018-09-21T10:17:51.330Z,25.30
2018-09-21T10:20:19.753Z,25.20
2018-09-21T10:22:50.267Z,25.30
2018-09-21T10:25:18.696Z,25.40
2018-09-21T10:27:47.195Z,25.40
2018-09-21T10:30:15.533Z,25.40
2018-09-21T10:32:43.932Z,25.40
2018-09-21T10:35:12.365Z,25.40
2018-09-21T10:37:40.764Z,25.50
2018-09-21T10:40:09.287Z,25.60
2018-09-21T10:42:37.731Z,25.70
2018-09-21T10:45:06.153Z,25.80
2018-09-21T10:47:34.593Z,25.90
2018-09-21T10:50:03.858Z,25.80
2018-09-21T10:52:32.309Z,25.80
2018-09-21T10:55:00.733Z,25.80
2018-09-21T10:57:29.162Z,25.60
2018-09-21T10:59:57.572Z,25.50
2018-09-21T11:02:26.009Z,25.40
2018-09-21T11:04:54.420Z,25.40
2018-09-21T11:07:22.845Z,25.40
2018-09-21T11:09:51.257Z,25.70
2018-09-21T11:12:19.668Z,26.00
2018-09-21T11:14:48.062Z,26.30
2018-09-21T11:17:16.526Z,26.30
2018-09-21T11:19:44.973Z,26.10
2018-09-21T11:22:13.392Z,25.90
2018-09-21T11:24:41.789Z,25.70
2018-09-21T11:27:10.253Z,25.50
2018-09-21T11:29:38.664Z,25.50
2018-09-21T11:32:07.115Z,25.70
2018-09-21T11:34:35.500Z,25.90
2018-09-21T11:37:03.932Z,26.10
2018-09-21T11:39:32.337Z,26.00
2018-09-21T11:42:00.773Z,26.00
2018-09-21T11:44:29.182Z,25.90
2018-09-21T11:46:57.624Z,25.90
2018-09-21T11:49:26.022Z,25.90
2018-09-21T11:51:54.412Z,25.80
2018-09-21T11:54:22.843Z,25.80
2018-09-21T11:56:51.245Z,25.60
2018-09-21T11:59:19.697Z,25.50
2018-09-21T12:01:48.142Z,25.40
2018-09-21T12:04:16.562Z,25.30
2018-09-21T12:06:44.964Z,25.30
2018-09-21T12:09:13.706Z,25.30
2018-09-21T12:11:42.115Z,25.30
2018-09-21T12:14:10.532Z,25.30
2018-09-21T12:16:38.956Z,25.30
2018-09-21T12:19:07.575Z,25.20
2018-09-21T12:21:36.041Z,25.20
2018-09-21T12:24:04.501Z,25.10
2018-09-21T12:26:32.895Z,25.00
2018-09-21T12:29:01.348Z,24.90
2018-09-21T12:31:29.749Z,24.90
2018-09-21T12:33:59.214Z,24.90
2018-09-21T12:36:27.691Z,24.80
2018-09-21T12:38:56.129Z,24.70
2018-09-21T12:41:24.563Z,24.50
2018-09-21T12:43:52.951Z,24.50
2018-09-21T12:46:26.381Z,24.60
2018-09-21T12:48:57.124Z,24.60
2018-09-21T12:51:25.932Z,24.60
2018-09-21T12:53:54.783Z,24.70
2018-09-21T12:56:23.596Z,24.60
2018-09-21T12:58:52.356Z,24.40
2018-09-21T13:01:22.692Z,24.30
2018-09-21T13:03:51.108Z,24.20
2018-09-21T13:06:19.538Z,24.00
2018-09-21T13:08:47.951Z,24.00
2018-09-21T13:11:16.463Z,23.90
2018-09-21T13:13:44.888Z,24.00
2018-09-21T13:16:13.328Z,24.00
2018-09-21T13:18:41.736Z,24.10
2018-09-21T13:21:10.165Z,24.00
2018-09-21T13:23:38.569Z,23.90
2018-09-21T13:26:07.029Z,23.80
2018-09-21T13:28:35.519Z,23.70
2018-09-21T13:31:03.968Z,23.50
2018-09-21T13:33:32.476Z,23.30
2018-09-21T13:36:00.889Z,23.10
2018-09-21T13:38:29.283Z,23.00
2018-09-21T13:40:57.704Z,22.70
2018-09-21T13:43:26.148Z,22.30
2018-09-21T13:45:54.611Z,22.00
2018-09-21T13:48:24.301Z,21.80
2018-09-21T13:50:52.696Z,21.50
2018-09-21T13:53:21.096Z,21.30
2018-09-21T13:55:49.510Z,21.00
2018-09-21T13:58:17.937Z,20.90
2018-09-21T14:00:46.372Z,20.80
2018-09-21T14:03:14.797Z,20.80
2018-09-21T14:05:43.211Z,20.80
2018-09-21T14:08:11.633Z,20.80
2018-09-21T14:10:40.024Z,20.90
2018-09-21T14:13:08.460Z,20.90
2018-09-21T14:15:36.900Z,20.90
2018-09-21T14:18:06.842Z,21.00
2018-09-21T14:20:35.231Z,21.20
2018-09-21T14:23:03.681Z,21.20
2018-09-21T14:25:32.097Z,21.20
2018-09-21T14:28:00.527Z,20.70
2018-09-21T14:30:28.932Z,19.20
2018-09-21T14:32:57.339Z,17.80
2018-09-21T14:35:25.780Z,16.70
2018-09-21T14:37:54.203Z,16.00
2018-09-21T14:40:22.617Z,15.60
2018-09-21T14:42:51.020Z,15.50
2018-09-21T14:45:19.472Z,15.40
2018-09-21T14:47:47.934Z,15.30
2018-09-21T14:50:16.316Z,15.20
2018-09-21T14:52:44.770Z,15.10
2018-09-21T14:55:13.209Z,15.00
2018-09-21T14:57:41.640Z,15.00
2018-09-21T15:00:10.122Z,14.70
2018-09-21T15:02:38.532Z,14.70
2018-09-21T15:05:06.972Z,14.60
2018-09-21T15:07:35.564Z,14.50
2018-09-21T15:10:04.018Z,14.40
2018-09-21T15:12:32.621Z,14.20
2018-09-21T15:15:01.089Z,14.10
2018-09-21T15:17:29.521Z,14.10
2018-09-21T15:19:57.932Z,14.10
2018-09-21T15:22:26.335Z,14.00
2018-09-21T15:24:54.756Z,13.90
2018-09-21T15:27:23.165Z,13.70
2018-09-21T15:29:51.606Z,13.60
2018-09-21T15:32:20.077Z,13.60
2018-09-21T15:34:48.612Z,13.60
2018-09-21T15:37:17.053Z,13.70
2018-09-21T15:39:45.460Z,13.80
2018-09-21T15:42:13.896Z,13.90
2018-09-21T15:44:42.317Z,13.80
2018-09-21T15:47:10.808Z,13.90
2018-09-21T15:49:39.220Z,13.80
2018-09-21T15:52:07.681Z,13.70
2018-09-21T15:54:36.343Z,13.60
2018-09-21T15:57:04.788Z,13.60
2018-09-21T15:59:33.232Z,13.50
2018-09-21T16:02:01.685Z,13.40
2018-09-21T16:04:31.049Z,13.40
2018-09-21T16:06:59.583Z,13.30
2018-09-21T16:09:27.931Z,13.30
2018-09-21T16:11:56.360Z,13.30
2018-09-21T16:14:24.781Z,13.30
2018-09-21T16:16:53.220Z,13.20
2018-09-21T16:19:21.617Z,13.20
2018-09-21T16:21:50.293Z,13.20
2018-09-21T16:24:18.723Z,13.30
2018-09-21T16:26:47.165Z,13.30
2018-09-21T16:29:15.560Z,13.40
2018-09-21T16:31:43.996Z,13.40
2018-09-21T16:34:12.413Z,13.40
2018-09-21T16:36:40.897Z,13.50
2018-09-21T16:39:10.688Z,13.50
2018-09-21T16:41:39.104Z,13.40
2018-09-21T16:44:07.621Z,13.50
2018-09-21T16:46:36.930Z,13.40
2018-09-21T16:49:05.457Z,13.40
2018-09-21T16:51:33.857Z,13.40
2018-09-21T16:54:02.316Z,13.50
2018-09-21T16:56:30.721Z,13.50
2018-09-21T16:58:59.226Z,13.50
2018-09-21T17:01:27.594Z,13.40
2018-09-21T17:03:56.472Z,13.40
2018-09-21T17:06:24.901Z,13.40
2018-09-21T17:08:53.416Z,13.40
2018-09-21T17:11:22.015Z,13.40
2018-09-21T17:13:50.412Z,13.40
2018-09-21T17:16:18.840Z,13.40
2018-09-21T17:18:47.345Z,13.40
2018-09-21T17:21:15.805Z,13.30
2018-09-21T17:23:44.200Z,13.30
2018-09-21T17:26:12.583Z,13.20
2018-09-21T17:28:41.097Z,13.20
2018-09-21T17:31:09.492Z,13.20
2018-09-21T17:33:37.912Z,13.10
2018-09-21T17:36:06.772Z,13.00
2018-09-21T17:38:35.185Z,13.00
2018-09-21T17:41:03.613Z,13.00
2018-09-21T17:43:32.079Z,12.90
2018-09-21T17:46:00.500Z,12.90
2018-09-21T17:48:28.902Z,12.80
2018-09-21T17:50:57.322Z,12.80
2018-09-21T17:53:25.703Z,12.80
2018-09-21T17:55:54.121Z,12.80
2018-09-21T17:58:22.553Z,12.80
2018-09-21T18:00:51.012Z,12.80
2018-09-21T18:03:19.441Z,12.80
2018-09-21T18:05:47.863Z,12.80
2018-09-21T18:08:16.289Z,12.80
2018-09-21T18:10:44.700Z,12.70
2018-09-21T18:13:13.102Z,12.70
2018-09-21T18:15:41.523Z,12.70
2018-09-21T18:18:09.921Z,12.70
2018-09-21T18:20:38.352Z,12.70
2018-09-21T18:23:06.813Z,12.70
2018-09-21T18:25:35.282Z,12.70
2018-09-21T18:28:03.710Z,12.70
2018-09-21T18:30:32.163Z,12.70
2018-09-21T18:33:00.555Z,12.70
2018-09-21T18:35:29.589Z,12.80
2018-09-21T18:37:57.980Z,12.80
2018-09-21T18:40:26.407Z,12.70
2018-09-21T18:42:54.796Z,12.70
2018-09-21T18:45:23.242Z,12.70
2018-09-21T18:47:51.669Z,12.70
2018-09-21T18:50:20.118Z,12.70
2018-09-21T18:52:48.540Z,12.70
2018-09-21T18:55:16.937Z,12.70
2018-09-21T18:57:45.363Z,12.80
2018-09-21T19:00:13.834Z,12.70
2018-09-21T19:02:42.272Z,12.70
2018-09-21T19:05:10.670Z,12.70
2018-09-21T19:07:39.163Z,12.60
2018-09-21T19:10:07.587Z,12.60
2018-09-21T19:12:36.076Z,12.60
2018-09-21T19:15:04.555Z,12.70
2018-09-21T19:17:32.985Z,12.70
2018-09-21T19:20:01.384Z,12.60
2018-09-21T19:22:29.832Z,12.60
2018-09-21T19:24:58.244Z,12.60
2018-09-21T19:27:26.672Z,12.60
2018-09-21T19:29:55.072Z,12.50
2018-09-21T19:32:23.513Z,12.50
2018-09-21T19:34:51.957Z,12.50
2018-09-21T19:37:20.379Z,12.50
2018-09-21T19:39:48.789Z,12.50
2018-09-21T19:42:17.212Z,12.50
2018-09-21T19:44:45.667Z,12.40
2018-09-21T19:47:14.049Z,12.50
2018-09-21T19:49:42.452Z,12.40
2018-09-21T19:52:10.888Z,12.40
2018-09-21T19:54:39.410Z,12.40
2018-09-21T19:57:08.612Z,12.40
2018-09-21T19:59:37.023Z,12.40
2018-09-21T20:02:05.445Z,12.40
2018-09-21T20:04:33.860Z,12.40
2018-09-21T20:07:02.264Z,12.40
2018-09-21T20:09:31.234Z,12.30
2018-09-21T20:11:59.732Z,12.30
2018-09-21T20:14:28.096Z,12.30
2018-09-21T20:16:56.622Z,12.20
2018-09-21T20:19:25.072Z,12.20
2018-09-21T20:21:53.451Z,12.10
2018-09-21T20:24:21.867Z,12.10
2018-09-21T20:26:50.295Z,12.00
2018-09-21T20:29:18.705Z,11.90
2018-09-21T20:31:52.412Z,11.80
2018-09-21T20:34:20.826Z,11.80
2018-09-21T20:36:49.354Z,11.70
2018-09-21T20:39:17.789Z,11.70
2018-09-21T20:41:46.202Z,11.60
2018-09-21T20:44:14.760Z,11.50
2018-09-21T20:46:43.171Z,11.50
2018-09-21T20:49:11.614Z,11.40
2018-09-21T20:51:40.071Z,11.40
2018-09-21T20:54:08.456Z,11.30
2018-09-21T20:56:36.864Z,11.30
2018-09-21T20:59:05.273Z,11.20
2018-09-21T21:01:33.704Z,11.20
2018-09-21T21:04:02.084Z,11.20
2018-09-21T21:06:30.545Z,11.10
2018-09-21T21:08:58.952Z,11.10
2018-09-21T21:11:27.384Z,11.00
2018-09-21T21:13:55.779Z,11.00
2018-09-21T21:16:24.201Z,10.90
2018-09-21T21:18:52.612Z,10.90
2018-09-21T21:21:21.044Z,10.80
2018-09-21T21:23:49.452Z,10.70
2018-09-21T21:26:19.228Z,10.70
2018-09-21T21:28:47.639Z,10.60
2018-09-21T21:31:16.083Z,10.60
2018-09-21T21:33:44.485Z,10.60
2018-09-21T21:36:12.894Z,10.50
2018-09-21T21:38:41.431Z,10.50
2018-09-21T21:41:09.922Z,10.50
2018-09-21T21:43:38.656Z,10.50
2018-09-21T21:46:07.231Z,10.50
2018-09-21T21:48:35.624Z,10.60
2018-09-21T21:51:04.040Z,10.60
2018-09-21T21:53:32.451Z,10.60
2018-09-21T21:56:00.852Z,10.60
2018-09-21T21:58:29.271Z,10.60
2018-09-21T22:01:02.996Z,10.60
2018-09-21T22:03:31.412Z,10.50
2018-09-21T22:05:59.813Z,10.50
2018-09-21T22:08:28.232Z,10.40
2018-09-21T22:10:56.652Z,10.40
2018-09-21T22:13:30.220Z,10.40
2018-09-21T22:15:58.603Z,10.40
2018-09-21T22:18:27.013Z,10.40
2018-09-21T22:20:55.412Z,10.30
2018-09-21T22:23:23.823Z,10.20
2018-09-21T22:25:52.218Z,10.20
2018-09-21T22:28:20.649Z,10.20
2018-09-21T22:30:49.101Z,10.20
2018-09-21T22:33:17.551Z,10.10
2018-09-21T22:35:46.009Z,10.10
2018-09-21T22:38:14.404Z,10.10
2018-09-21T22:40:42.844Z,10.10
2018-09-21T22:43:11.258Z,10.00
2018-09-21T22:45:39.676Z,9.90
2018-09-21T22:48:08.094Z,9.80
2018-09-21T22:50:36.496Z,9.60
2018-09-21T22:53:04.941Z,9.50
2018-09-21T22:55:33.359Z,9.50
2018-09-21T22:58:01.763Z,9.50
2018-09-21T23:00:30.165Z,9.40
2018-09-21T23:02:58.597Z,9.40
2018-09-21T23:05:26.992Z,9.40
2018-09-21T23:07:55.383Z,9.40
2018-09-21T23:10:23.911Z,9.40
2018-09-21T23:12:52.307Z,9.40
2018-09-21T23:15:20.721Z,9.40
2018-09-21T23:17:49.241Z,9.30
2018-09-21T23:20:17.654Z,9.20
2018-09-21T23:22:46.063Z,9.00
2018-09-21T23:25:14.478Z,8.90
2018-09-21T23:27:43.117Z,8.90
2018-09-21T23:30:11.544Z,8.80
2018-09-21T23:32:39.992Z,8.80
2018-09-21T23:35:08.485Z,8.80
2018-09-21T23:37:36.889Z,8.80
2018-09-21T23:40:05.348Z,8.80
2018-09-21T23:42:33.748Z,8.70
2018-09-21T23:45:02.192Z,8.60
2018-09-21T23:47:30.609Z,8.40
2018-09-21T23:49:59.053Z,8.30
2018-09-21T23:52:27.452Z,8.20
2018-09-21T23:54:56.643Z,8.10
2018-09-21T23:57:43.125Z,8.20
